Ely Colony, Nevada
Current Conditions -  °F | °C
As of 1:53 PM on Thursday 23 Oct 2014 (Local Time) from KELY Reporting Station
Clear Clear  
Wind Chill: 71°   Ceiling: Unl
Heat Index: 71°   Visibility: 10mi
Dew Point: 20°   Wind: 16mph
Humidity: 14%   Direction: 180°S
Pressure: 30.15"   Gusts: NA
Location:  39.5572°N, 115.033°W
Report Text: KELY 232053Z AUTO 18014KT 10SM CLR 22/M07 A3015 RMK AO2 SLP133 T02171067 58016
Loading
Personal Weather Stations






























Interactive Weather Map
Tropical Storm Tracking
New forecast layout! Learn more

10-Day Weather Forecast

Advertisements
Track Severe Weather on mobile